Leeton, Missouri
Current Conditions -  °F | °C
As of 8:58 AM on Friday 24 Oct 2014 (Local Time) from KSZL Reporting Station
Overcast Overcast  
Wind Chill: 57°   Ceiling: 400
Heat Index: 57°   Visibility: 7mi
Dew Point: 55°   Wind: 9mph
Humidity: 92%   Direction: 200°SSW
Pressure: 30.09"   Gusts: NA
Location:  38.58°N, 93.69°W
Report Text: KSZL 241358Z 20008KT 7SM OVC004 14/13 A3009 RMK AO2A SLP190 T01410129 $
Loading
Personal Weather Stations






























Interactive Weather Map
Tropical Storm Tracking
New forecast layout! Learn more

10-Day Weather Forecast

Advertisements
Track Severe Weather on mobile